BDR660 HSPN-OEJN
Flight info
| Callsign | BDR660 |
|---|---|
| Flight time | 0h 33m |
| Altitude | 23000 |
| Route | PSD M562 MIPOL G660 EGMEG |
| Aircraft | B738/M-SDE2E3FGHIRWXY/LB1 |
Departure
| Time | 2026-05-06 14:47 |
|---|---|
| Airport | Port Sudan New International Airport (HSPN) |
Arrival
| Time | 2026-05-06 15:20 |
|---|---|
| Airport | King Abdulaziz International Airport (OEJN) |
| Time | Latitude | Longitude | Altitude | Speed | Heading |
|---|---|---|---|---|---|
| 2026-05-06 14:47 | 19.63935 | 37.42594 | 9649 ft | 309 kts | 51° |
| 2026-05-06 14:47 | 19.65289 | 37.44386 | 10263 ft | 314 kts | 51° |
| 2026-05-06 14:47 | 19.66697 | 37.46248 | 10460 ft | 335 kts | 51° |
| 2026-05-06 14:47 | 19.68197 | 37.48229 | 10692 ft | 353 kts | 51° |
| 2026-05-06 14:48 | 19.69749 | 37.50279 | 11246 ft | 357 kts | 51° |
| 2026-05-06 14:48 | 19.71312 | 37.52345 | 11911 ft | 361 kts | 51° |
| 2026-05-06 14:48 | 19.72899 | 37.54442 | 12461 ft | 367 kts | 51° |
| 2026-05-06 14:48 | 19.74506 | 37.56566 | 13108 ft | 371 kts | 51° |
| 2026-05-06 14:49 | 19.76137 | 37.58723 | 13653 ft | 378 kts | 51° |
| 2026-05-06 14:49 | 19.77784 | 37.60901 | 14382 ft | 377 kts | 51° |
| 2026-05-06 14:49 | 19.79425 | 37.63071 | 15110 ft | 379 kts | 51° |
| 2026-05-06 14:49 | 19.81091 | 37.65277 | 15644 ft | 386 kts | 51° |
| 2026-05-06 14:50 | 19.82767 | 37.67495 | 16111 ft | 395 kts | 51° |
| 2026-05-06 14:50 | 19.84531 | 37.69831 | 16618 ft | 402 kts | 52° |
| 2026-05-06 14:50 | 19.86282 | 37.72150 | 17333 ft | 403 kts | 51° |
| 2026-05-06 14:50 | 19.88047 | 37.74490 | 17903 ft | 408 kts | 51° |
| 2026-05-06 14:51 | 19.89828 | 37.76851 | 18500 ft | 411 kts | 51° |
| 2026-05-06 14:51 | 19.91623 | 37.79232 | 18804 ft | 415 kts | 51° |
| 2026-05-06 14:51 | 19.93444 | 37.81648 | 18833 ft | 422 kts | 51° |
| 2026-05-06 14:51 | 19.95290 | 37.84098 | 18838 ft | 425 kts | 51° |
| 2026-05-06 14:52 | 19.97136 | 37.86551 | 18828 ft | 423 kts | 51° |
| 2026-05-06 14:52 | 19.98973 | 37.88991 | 18834 ft | 423 kts | 51° |
| 2026-05-06 14:52 | 20.00809 | 37.91432 | 18835 ft | 422 kts | 51° |
| 2026-05-06 14:52 | 20.02652 | 37.93883 | 18858 ft | 429 kts | 51° |
| 2026-05-06 14:53 | 20.04545 | 37.96402 | 19032 ft | 442 kts | 51° |
| 2026-05-06 14:53 | 20.06477 | 37.98974 | 19347 ft | 448 kts | 51° |
| 2026-05-06 14:53 | 20.08434 | 38.01578 | 19776 ft | 451 kts | 51° |
| 2026-05-06 14:53 | 20.10417 | 38.04098 | 20348 ft | 450 kts | 45° |
| 2026-05-06 14:54 | 20.12724 | 38.06317 | 20964 ft | 446 kts | 35° |
| 2026-05-06 14:54 | 20.15280 | 38.08153 | 21678 ft | 441 kts | 31° |
| 2026-05-06 14:54 | 20.17848 | 38.09909 | 22389 ft | 436 kts | 30° |
| 2026-05-06 14:54 | 20.20408 | 38.11652 | 22764 ft | 437 kts | 30° |
| 2026-05-06 14:55 | 20.22982 | 38.13415 | 22835 ft | 443 kts | 31° |
| 2026-05-06 14:55 | 20.25583 | 38.15213 | 22847 ft | 447 kts | 31° |
| 2026-05-06 14:55 | 20.28179 | 38.17022 | 22836 ft | 445 kts | 31° |
| 2026-05-06 14:55 | 20.30762 | 38.18832 | 22836 ft | 444 kts | 31° |
| 2026-05-06 14:56 | 20.33339 | 38.20641 | 22828 ft | 443 kts | 31° |
| 2026-05-06 14:56 | 20.35910 | 38.22448 | 22839 ft | 443 kts | 31° |
| 2026-05-06 14:56 | 20.38479 | 38.24254 | 22838 ft | 443 kts | 31° |
| 2026-05-06 14:56 | 20.41052 | 38.26063 | 22840 ft | 443 kts | 31° |
| 2026-05-06 14:57 | 20.43627 | 38.27872 | 22839 ft | 444 kts | 31° |
| 2026-05-06 14:57 | 20.46207 | 38.29686 | 22840 ft | 445 kts | 31° |
| 2026-05-06 14:57 | 20.48774 | 38.31493 | 22825 ft | 437 kts | 31° |
| 2026-05-06 14:57 | 20.51271 | 38.33252 | 22818 ft | 424 kts | 31° |
| 2026-05-06 14:58 | 20.53714 | 38.34973 | 22821 ft | 416 kts | 31° |
| 2026-05-06 14:58 | 20.56090 | 38.36643 | 22816 ft | 403 kts | 30° |
| 2026-05-06 14:58 | 20.58419 | 38.38205 | 22815 ft | 388 kts | 29° |
| 2026-05-06 14:58 | 20.60690 | 38.39676 | 22817 ft | 375 kts | 28° |
| 2026-05-06 14:59 | 20.62888 | 38.41087 | 22817 ft | 363 kts | 28° |
| 2026-05-06 14:59 | 20.65011 | 38.42453 | 22813 ft | 350 kts | 28° |
| 2026-05-06 14:59 | 20.67061 | 38.43779 | 22813 ft | 338 kts | 28° |
| 2026-05-06 14:59 | 20.69034 | 38.45060 | 22814 ft | 326 kts | 28° |
| 2026-05-06 15:00 | 20.70945 | 38.46304 | 22815 ft | 318 kts | 28° |
| 2026-05-06 15:00 | 20.72844 | 38.47539 | 22844 ft | 324 kts | 28° |
| 2026-05-06 15:00 | 20.74800 | 38.48810 | 22858 ft | 334 kts | 28° |
| 2026-05-06 15:00 | 20.76800 | 38.50115 | 22845 ft | 337 kts | 28° |
| 2026-05-06 15:01 | 20.78800 | 38.51422 | 22838 ft | 337 kts | 28° |
| 2026-05-06 15:01 | 20.80793 | 38.52725 | 22832 ft | 335 kts | 28° |
| 2026-05-06 15:01 | 20.82756 | 38.54008 | 22828 ft | 334 kts | 28° |
| 2026-05-06 15:01 | 20.84700 | 38.55362 | 22821 ft | 335 kts | 39° |
| 2026-05-06 15:02 | 20.86113 | 38.57315 | 22858 ft | 333 kts | 64° |
| 2026-05-06 15:02 | 20.86929 | 38.59620 | 22839 ft | 332 kts | 75° |
| 2026-05-06 15:02 | 20.87565 | 38.61977 | 22711 ft | 329 kts | 76° |
| 2026-05-06 15:02 | 20.88169 | 38.64331 | 22350 ft | 326 kts | 76° |
| 2026-05-06 15:03 | 20.88774 | 38.66667 | 21830 ft | 329 kts | 76° |
| 2026-05-06 15:03 | 20.89414 | 38.69096 | 20873 ft | 353 kts | 76° |
| 2026-05-06 15:03 | 20.90110 | 38.71688 | 19921 ft | 370 kts | 76° |
| 2026-05-06 15:03 | 20.90839 | 38.74366 | 18962 ft | 381 kts | 76° |
| 2026-05-06 15:04 | 20.91599 | 38.77142 | 17790 ft | 395 kts | 76° |
| 2026-05-06 15:04 | 20.92378 | 38.79982 | 16980 ft | 396 kts | 76° |
| 2026-05-06 15:04 | 20.93136 | 38.82738 | 16584 ft | 380 kts | 76° |
| 2026-05-06 15:04 | 20.93891 | 38.85508 | 15291 ft | 394 kts | 76° |
| 2026-05-06 15:05 | 20.94664 | 38.88351 | 14138 ft | 402 kts | 76° |
| 2026-05-06 15:05 | 20.95450 | 38.91237 | 12937 ft | 406 kts | 76° |
| 2026-05-06 15:05 | 20.96235 | 38.94122 | 12242 ft | 397 kts | 77° |
| 2026-05-06 15:05 | 20.97021 | 38.96863 | 12055 ft | 374 kts | 72° |
| 2026-05-06 15:06 | 20.97970 | 38.99389 | 11912 ft | 361 kts | 69° |
| 2026-05-06 15:06 | 20.98982 | 39.01812 | 11739 ft | 352 kts | 68° |
| 2026-05-06 15:06 | 20.99972 | 39.04163 | 11611 ft | 341 kts | 68° |
| 2026-05-06 15:06 | 21.00920 | 39.06446 | 11480 ft | 330 kts | 68° |
| 2026-05-06 15:07 | 21.01819 | 39.08646 | 11341 ft | 314 kts | 68° |
| 2026-05-06 15:07 | 21.02675 | 39.10759 | 11045 ft | 306 kts | 68° |
| 2026-05-06 15:07 | 21.03511 | 39.12842 | 10568 ft | 305 kts | 70° |
| 2026-05-06 15:07 | 21.04354 | 39.14955 | 10050 ft | 311 kts | 69° |
| 2026-05-06 15:08 | 21.05192 | 39.17055 | 9949 ft | 302 kts | 69° |
| 2026-05-06 15:08 | 21.06014 | 39.19115 | 9732 ft | 299 kts | 69° |
| 2026-05-06 15:08 | 21.06818 | 39.21130 | 9624 ft | 291 kts | 69° |
| 2026-05-06 15:08 | 21.07601 | 39.23093 | 9548 ft | 282 kts | 70° |
| 2026-05-06 15:09 | 21.08485 | 39.24945 | 9378 ft | 279 kts | 52° |
| 2026-05-06 15:09 | 21.09997 | 39.26171 | 9301 ft | 271 kts | 24° |
| 2026-05-06 15:09 | 21.11794 | 39.26727 | 9071 ft | 268 kts | 9° |
| 2026-05-06 15:09 | 21.13588 | 39.27059 | 8840 ft | 267 kts | 9° |
| 2026-05-06 15:10 | 21.15420 | 39.27384 | 8532 ft | 269 kts | 9° |
| 2026-05-06 15:10 | 21.17250 | 39.27717 | 8361 ft | 264 kts | 9° |
| 2026-05-06 15:10 | 21.19062 | 39.28055 | 8166 ft | 260 kts | 10° |
| 2026-05-06 15:10 | 21.20843 | 39.28394 | 7874 ft | 262 kts | 10° |
| 2026-05-06 15:11 | 21.22634 | 39.28739 | 7599 ft | 263 kts | 10° |
| 2026-05-06 15:11 | 21.24421 | 39.29084 | 7430 ft | 259 kts | 11° |
| 2026-05-06 15:11 | 21.26195 | 39.29428 | 7220 ft | 256 kts | 10° |
| 2026-05-06 15:11 | 21.27953 | 39.29420 | 6930 ft | 257 kts | 342° |
| 2026-05-06 15:12 | 21.29613 | 39.28745 | 6690 ft | 256 kts | 338° |
| 2026-05-06 15:12 | 21.31286 | 39.28070 | 6451 ft | 255 kts | 339° |
| 2026-05-06 15:12 | 21.32933 | 39.27415 | 6263 ft | 251 kts | 339° |
| 2026-05-06 15:12 | 21.34560 | 39.26772 | 6108 ft | 245 kts | 340° |
| 2026-05-06 15:13 | 21.36111 | 39.26161 | 6031 ft | 232 kts | 339° |
| 2026-05-06 15:13 | 21.37588 | 39.25578 | 5895 ft | 222 kts | 339° |
| 2026-05-06 15:13 | 21.39046 | 39.25003 | 5590 ft | 222 kts | 340° |
| 2026-05-06 15:13 | 21.40486 | 39.24435 | 5318 ft | 220 kts | 339° |
| 2026-05-06 15:14 | 21.41933 | 39.23864 | 4988 ft | 222 kts | 339° |
| 2026-05-06 15:14 | 21.43354 | 39.23304 | 4854 ft | 212 kts | 339° |
| 2026-05-06 15:14 | 21.44711 | 39.22769 | 4656 ft | 206 kts | 339° |
| 2026-05-06 15:14 | 21.46039 | 39.22245 | 4442 ft | 200 kts | 339° |
| 2026-05-06 15:15 | 21.47334 | 39.21734 | 4184 ft | 197 kts | 339° |
| 2026-05-06 15:15 | 21.48610 | 39.21229 | 3950 ft | 193 kts | 339° |
| 2026-05-06 15:15 | 21.49875 | 39.20732 | 3650 ft | 193 kts | 340° |
| 2026-05-06 15:15 | 21.51120 | 39.20270 | 3420 ft | 189 kts | 340° |
| 2026-05-06 15:16 | 21.52348 | 39.19797 | 3191 ft | 187 kts | 339° |
| 2026-05-06 15:16 | 21.53576 | 39.19314 | 2946 ft | 188 kts | 339° |
| 2026-05-06 15:16 | 21.54836 | 39.18813 | 2561 ft | 195 kts | 341° |
| 2026-05-06 15:16 | 21.56120 | 39.18304 | 2197 ft | 195 kts | 340° |
| 2026-05-06 15:17 | 21.57373 | 39.17806 | 1939 ft | 189 kts | 341° |
| 2026-05-06 15:17 | 21.58563 | 39.17332 | 1702 ft | 176 kts | 342° |
| 2026-05-06 15:17 | 21.59669 | 39.16893 | 1474 ft | 163 kts | 341° |
| 2026-05-06 15:17 | 21.60687 | 39.16489 | 1264 ft | 149 kts | 340° |
| 2026-05-06 15:18 | 21.61621 | 39.16119 | 1097 ft | 135 kts | 340° |
| 2026-05-06 15:18 | 21.62478 | 39.15778 | 975 ft | 124 kts | 339° |
| 2026-05-06 15:18 | 21.63254 | 39.15468 | 786 ft | 119 kts | 345° |
| 2026-05-06 15:18 | 21.64145 | 39.15120 | 628 ft | 140 kts | 340° |
| 2026-05-06 15:19 | 21.65056 | 39.14757 | 425 ft | 141 kts | 339° |
| 2026-05-06 15:19 | 21.65950 | 39.14389 | 262 ft | 133 kts | 341° |
| 2026-05-06 15:19 | 21.66833 | 39.14044 | 113 ft | 135 kts | 342° |
| 2026-05-06 15:19 | 21.67656 | 39.13717 | 45 ft | 116 kts | 342° |
| 2026-05-06 15:20 | 21.68336 | 39.13452 | 29 ft | 87 kts | 340° |
| 2026-05-06 15:20 | 21.68787 | 39.13274 | 27 ft | 53 kts | 340° |
| 2026-05-06 15:20 | 21.69074 | 39.13188 | 28 ft | 36 kts | 355° |
| 2026-05-06 15:20 | 21.69238 | 39.13213 | 26 ft | 20 kts | 12° |
| 2026-05-06 15:21 | 21.69358 | 39.13278 | 27 ft | 19 kts | 50° |
| 2026-05-06 15:21 | 21.69390 | 39.13369 | 25 ft | 11 kts | 71° |
| 2026-05-06 15:21 | 21.69416 | 39.13430 | 25 ft | 6 kts | 61° |
| 2026-05-06 15:21 | 21.69447 | 39.13463 | 25 ft | 6 kts | 26° |
| 2026-05-06 15:22 | 21.69491 | 39.13462 | 25 ft | 7 kts | 340° |
| 2026-05-06 15:22 | 21.69534 | 39.13443 | 26 ft | 7 kts | 338° |
| 2026-05-06 15:22 | 21.69576 | 39.13426 | 27 ft | 6 kts | 339° |
| 2026-05-06 15:22 | 21.69612 | 39.13445 | 27 ft | 7 kts | 64° |
| 2026-05-06 15:23 | 21.69621 | 39.13492 | 24 ft | 6 kts | 75° |
| 2026-05-06 15:23 | 21.69625 | 39.13508 | 27 ft | 1 kts | 74° |
| 2026-05-06 15:23 | 21.69626 | 39.13512 | 27 ft | 1 kts | 74° |
| 2026-05-06 15:23 | 21.69627 | 39.13515 | 26 ft | 0 kts | 74° |
| 2026-05-06 15:24 | 21.69627 | 39.13516 | 26 ft | 0 kts | 74° |
| 2026-05-06 15:24 | 21.69627 | 39.13518 | 26 ft | 0 kts | 74° |
| 2026-05-06 15:24 | 21.69628 | 39.13519 | 25 ft | 0 kts | 74° |